GLD1794 LPHR-LPPI
Flight info
| Callsign | GLD1794 |
|---|---|
| Flight time | 0h 16m |
| Altitude | 13000 |
| Route | ASPEX DCT BANIX DCT ORPIC |
| Aircraft | A319/M-SDE3FGHIRWY/LB1 |
Departure
| Time | 2026-05-09 14:23 |
|---|---|
| Airport | Horta Airport (LPHR) |
Arrival
| Time | 2026-05-09 14:39 |
|---|---|
| Airport | Pico Airport (LPPI) |
| Time | Latitude | Longitude | Altitude | Speed | Heading |
|---|---|---|---|---|---|
| 2026-05-09 14:08 | 38.52101 | -28.71552 | 117 ft | 0 kts | 119° |
| 2026-05-09 14:19 | 38.52097 | -28.71543 | 118 ft | 2 kts | 119° |
| 2026-05-09 14:20 | 38.52087 | -28.71519 | 117 ft | 4 kts | 119° |
| 2026-05-09 14:20 | 38.52062 | -28.71494 | 117 ft | 6 kts | 160° |
| 2026-05-09 14:20 | 38.51997 | -28.71457 | 109 ft | 16 kts | 116° |
| 2026-05-09 14:21 | 38.51994 | -28.71131 | 112 ft | 20 kts | 90° |
| 2026-05-09 14:21 | 38.51994 | -28.70961 | 115 ft | 19 kts | 90° |
| 2026-05-09 14:21 | 38.51994 | -28.70785 | 116 ft | 20 kts | 90° |
| 2026-05-09 14:21 | 38.52020 | -28.70646 | 120 ft | 14 kts | 143° |
| 2026-05-09 14:22 | 38.51993 | -28.70710 | 119 ft | 0 kts | 273° |
| 2026-05-09 14:22 | 38.51993 | -28.70729 | 118 ft | 8 kts | 273° |
| 2026-05-09 14:22 | 38.51993 | -28.71129 | 112 ft | 93 kts | 269° |
| 2026-05-09 14:22 | 38.51993 | -28.72247 | 349 ft | 145 kts | 277° |
| 2026-05-09 14:23 | 38.51995 | -28.73558 | 1190 ft | 147 kts | 280° |
| 2026-05-09 14:23 | 38.51953 | -28.74878 | 2116 ft | 158 kts | 271° |
| 2026-05-09 14:23 | 38.51279 | -28.76204 | 2737 ft | 205 kts | 222° |
| 2026-05-09 14:23 | 38.49803 | -28.76728 | 3256 ft | 242 kts | 174° |
| 2026-05-09 14:24 | 38.48215 | -28.75861 | 3877 ft | 262 kts | 132° |
| 2026-05-09 14:24 | 38.47209 | -28.73888 | 4733 ft | 271 kts | 105° |
| 2026-05-09 14:24 | 38.46653 | -28.71580 | 6019 ft | 273 kts | 96° |
| 2026-05-09 14:24 | 38.46220 | -28.69213 | 7306 ft | 275 kts | 96° |
| 2026-05-09 14:25 | 38.45772 | -28.66827 | 8540 ft | 279 kts | 98° |
| 2026-05-09 14:25 | 38.45262 | -28.64407 | 9767 ft | 286 kts | 99° |
| 2026-05-09 14:25 | 38.44681 | -28.61930 | 10735 ft | 301 kts | 101° |
| 2026-05-09 14:25 | 38.44014 | -28.59269 | 11290 ft | 327 kts | 102° |
| 2026-05-09 14:26 | 38.43259 | -28.56414 | 11790 ft | 351 kts | 103° |
| 2026-05-09 14:26 | 38.42445 | -28.53461 | 12585 ft | 362 kts | 104° |
| 2026-05-09 14:26 | 38.41588 | -28.50414 | 13029 ft | 367 kts | 104° |
| 2026-05-09 14:26 | 38.40719 | -28.47341 | 13159 ft | 374 kts | 104° |
| 2026-05-09 14:27 | 38.39837 | -28.44190 | 12470 ft | 378 kts | 104° |
| 2026-05-09 14:27 | 38.38961 | -28.41051 | 11737 ft | 373 kts | 104° |
| 2026-05-09 14:27 | 38.38100 | -28.37963 | 11255 ft | 362 kts | 104° |
| 2026-05-09 14:27 | 38.37278 | -28.35027 | 11127 ft | 342 kts | 105° |
| 2026-05-09 14:28 | 38.36501 | -28.32240 | 11006 ft | 325 kts | 104° |
| 2026-05-09 14:28 | 38.35763 | -28.29583 | 10876 ft | 311 kts | 104° |
| 2026-05-09 14:28 | 38.35055 | -28.27032 | 10710 ft | 299 kts | 104° |
| 2026-05-09 14:28 | 38.34384 | -28.24619 | 10560 ft | 280 kts | 104° |
| 2026-05-09 14:29 | 38.33748 | -28.22324 | 10249 ft | 270 kts | 103° |
| 2026-05-09 14:29 | 38.33305 | -28.20034 | 10064 ft | 263 kts | 87° |
| 2026-05-09 14:29 | 38.33486 | -28.17772 | 9930 ft | 253 kts | 68° |
| 2026-05-09 14:29 | 38.34216 | -28.15778 | 9792 ft | 246 kts | 50° |
| 2026-05-09 14:30 | 38.35379 | -28.14235 | 9659 ft | 240 kts | 33° |
| 2026-05-09 14:30 | 38.36836 | -28.13249 | 9525 ft | 237 kts | 19° |
| 2026-05-09 14:30 | 38.38371 | -28.12460 | 9124 ft | 236 kts | 20° |
| 2026-05-09 14:30 | 38.39865 | -28.11677 | 9075 ft | 233 kts | 20° |
| 2026-05-09 14:31 | 38.41390 | -28.10956 | 9069 ft | 234 kts | 10° |
| 2026-05-09 14:31 | 38.43017 | -28.10826 | 8680 ft | 233 kts | 360° |
| 2026-05-09 14:31 | 38.44572 | -28.10854 | 8496 ft | 215 kts | 359° |
| 2026-05-09 14:31 | 38.46032 | -28.10895 | 8113 ft | 207 kts | 359° |
| 2026-05-09 14:32 | 38.47470 | -28.10937 | 7549 ft | 206 kts | 359° |
| 2026-05-09 14:32 | 38.48900 | -28.10974 | 7010 ft | 205 kts | 359° |
| 2026-05-09 14:32 | 38.50322 | -28.11008 | 6472 ft | 203 kts | 359° |
| 2026-05-09 14:32 | 38.51708 | -28.11041 | 5914 ft | 201 kts | 359° |
| 2026-05-09 14:33 | 38.53087 | -28.11073 | 5500 ft | 194 kts | 359° |
| 2026-05-09 14:33 | 38.54378 | -28.11100 | 5319 ft | 177 kts | 359° |
| 2026-05-09 14:33 | 38.55554 | -28.11128 | 5213 ft | 163 kts | 358° |
| 2026-05-09 14:33 | 38.56651 | -28.11460 | 4958 ft | 164 kts | 339° |
| 2026-05-09 14:34 | 38.57570 | -28.12319 | 4810 ft | 166 kts | 320° |
| 2026-05-09 14:34 | 38.58178 | -28.13603 | 4662 ft | 176 kts | 297° |
| 2026-05-09 14:34 | 38.58330 | -28.15206 | 4449 ft | 190 kts | 273° |
| 2026-05-09 14:34 | 38.58161 | -28.16891 | 4218 ft | 191 kts | 273° |
| 2026-05-09 14:35 | 38.57992 | -28.18571 | 3961 ft | 190 kts | 272° |
| 2026-05-09 14:35 | 38.57825 | -28.20245 | 3697 ft | 189 kts | 273° |
| 2026-05-09 14:35 | 38.57661 | -28.21906 | 3457 ft | 188 kts | 273° |
| 2026-05-09 14:35 | 38.57496 | -28.23567 | 3198 ft | 188 kts | 274° |
| 2026-05-09 14:36 | 38.57331 | -28.25223 | 2938 ft | 188 kts | 274° |
| 2026-05-09 14:36 | 38.57167 | -28.26877 | 2686 ft | 188 kts | 272° |
| 2026-05-09 14:36 | 38.57002 | -28.28533 | 2425 ft | 189 kts | 271° |
| 2026-05-09 14:36 | 38.56835 | -28.30197 | 2197 ft | 187 kts | 271° |
| 2026-05-09 14:37 | 38.56672 | -28.31789 | 1917 ft | 173 kts | 272° |
| 2026-05-09 14:37 | 38.56523 | -28.33248 | 1686 ft | 157 kts | 272° |
| 2026-05-09 14:37 | 38.56390 | -28.34578 | 1483 ft | 145 kts | 270° |
| 2026-05-09 14:37 | 38.56267 | -28.35820 | 1294 ft | 138 kts | 270° |
| 2026-05-09 14:38 | 38.56149 | -28.37011 | 1111 ft | 133 kts | 270° |
| 2026-05-09 14:38 | 38.56033 | -28.38167 | 932 ft | 128 kts | 269° |
| 2026-05-09 14:38 | 38.55922 | -28.39276 | 765 ft | 125 kts | 269° |
| 2026-05-09 14:38 | 38.55812 | -28.40367 | 589 ft | 123 kts | 270° |
| 2026-05-09 14:39 | 38.55702 | -28.41453 | 443 ft | 124 kts | 271° |
| 2026-05-09 14:39 | 38.55588 | -28.42527 | 274 ft | 122 kts | 274° |
| 2026-05-09 14:39 | 38.55488 | -28.43590 | 150 ft | 114 kts | 268° |
| 2026-05-09 14:39 | 38.55413 | -28.44352 | 143 ft | 46 kts | 263° |
| 2026-05-09 14:40 | 38.55387 | -28.44607 | 142 ft | 27 kts | 262° |
| 2026-05-09 14:40 | 38.55365 | -28.44814 | 136 ft | 19 kts | 262° |
| 2026-05-09 14:40 | 38.55348 | -28.44972 | 134 ft | 17 kts | 262° |
| 2026-05-09 14:40 | 38.55317 | -28.45088 | 135 ft | 13 kts | 249° |
| 2026-05-09 14:41 | 38.55334 | -28.45096 | 134 ft | 8 kts | 68° |
| 2026-05-09 14:41 | 38.55350 | -28.44967 | 137 ft | 18 kts | 82° |
| 2026-05-09 14:41 | 38.55367 | -28.44796 | 135 ft | 21 kts | 84° |
| 2026-05-09 14:41 | 38.55388 | -28.44603 | 142 ft | 23 kts | 82° |
| 2026-05-09 14:42 | 38.55408 | -28.44403 | 143 ft | 22 kts | 82° |
| 2026-05-09 14:42 | 38.55429 | -28.44207 | 144 ft | 20 kts | 84° |
| 2026-05-09 14:42 | 38.55353 | -28.44125 | 139 ft | 16 kts | 181° |
| 2026-05-09 14:42 | 38.55263 | -28.44189 | 141 ft | 14 kts | 226° |
| 2026-05-09 14:43 | 38.55263 | -28.44256 | 140 ft | 0 kts | 307° |